createdAt,value
2023-01-19T00:01:58.383Z,95510.69
2023-01-19T00:04:00.092Z,95517.06
2023-01-19T00:06:05.823Z,95515.78
2023-01-19T00:08:14.743Z,95524.84
2023-01-19T00:10:16.990Z,95521.88
2023-01-19T00:12:18.594Z,95534.28
2023-01-19T00:14:20.200Z,95536.91
2023-01-19T00:16:23.207Z,95533.25
2023-01-19T00:18:25.714Z,95547.25
2023-01-19T00:20:27.395Z,95541.13
2023-01-19T00:22:28.923Z,95539.34
2023-01-19T00:24:30.533Z,95546.25
2023-01-19T00:26:32.131Z,95551.47
2023-01-19T00:28:34.138Z,95544.28
2023-01-19T00:30:35.855Z,95540.91
2023-01-19T00:32:37.387Z,95544.72
2023-01-19T00:34:40.235Z,95540.59
2023-01-19T00:36:42.862Z,95549.34
2023-01-19T00:38:44.466Z,95549.34
2023-01-19T00:40:46.784Z,95548.09
2023-01-19T00:42:48.817Z,95546.66
2023-01-19T00:44:50.523Z,95554.78
2023-01-19T00:46:52.079Z,95551.56
2023-01-19T00:48:53.582Z,95543.50
2023-01-19T00:50:55.073Z,95552.50
2023-01-19T00:52:57.718Z,95550.56
2023-01-19T00:54:59.455Z,95542.03
2023-01-19T00:57:01.820Z,95546.91
2023-01-19T00:59:03.838Z,95543.25
2023-01-19T01:01:06.026Z,95552.16
2023-01-19T01:03:07.836Z,95554.81
2023-01-19T01:05:11.313Z,95542.22
2023-01-19T01:07:12.860Z,95546.41
2023-01-19T01:09:14.419Z,95546.22
2023-01-19T01:11:15.901Z,95545.28
2023-01-19T01:13:20.916Z,95545.28
2023-01-19T01:15:27.179Z,95550.97
2023-01-19T01:17:28.904Z,95550.03
2023-01-19T01:19:30.678Z,95563.88
2023-01-19T01:21:34.426Z,95557.44
2023-01-19T01:23:35.999Z,95560.41
2023-01-19T01:25:38.516Z,95564.28
2023-01-19T01:27:40.239Z,95565.41
2023-01-19T01:29:48.274Z,95567.44
2023-01-19T01:31:49.897Z,95572.47
2023-01-19T01:33:51.642Z,95567.19
2023-01-19T01:35:53.971Z,95565.25
2023-01-19T01:37:58.779Z,95567.63
2023-01-19T01:40:00.563Z,95568.03
2023-01-19T01:42:03.251Z,95570.25
2023-01-19T01:44:49.494Z,95567.25
2023-01-19T01:46:51.294Z,95572.69
2023-01-19T01:49:10.360Z,95574.94
2023-01-19T01:51:25.142Z,95570.25
2023-01-19T01:53:29.770Z,95575.53
2023-01-19T01:55:34.606Z,95579.06
2023-01-19T01:57:40.006Z,95570.09
2023-01-19T01:59:47.669Z,95570.44
2023-01-19T02:02:08.406Z,95574.50
2023-01-19T02:04:11.835Z,95569.81
2023-01-19T02:06:14.398Z,95562.34
2023-01-19T02:08:46.191Z,95568.03
2023-01-19T02:11:07.520Z,95572.03
2023-01-19T02:13:21.132Z,95568.72
2023-01-19T02:15:22.867Z,95571.41
2023-01-19T02:17:24.716Z,95568.41
2023-01-19T02:19:53.808Z,95563.06
2023-01-19T02:22:06.435Z,95562.94
2023-01-19T02:24:12.073Z,95558.97
2023-01-19T02:26:18.334Z,95556.56
2023-01-19T02:28:20.638Z,95557.56
2023-01-19T02:30:22.810Z,95556.19
2023-01-19T02:32:24.811Z,95568.06
2023-01-19T02:34:26.467Z,95563.38
2023-01-19T02:36:38.549Z,95566.25
2023-01-19T02:38:43.820Z,95558.81
2023-01-19T02:40:46.479Z,95559.66
2023-01-19T02:42:51.670Z,95555.97
2023-01-19T02:44:56.430Z,95563.72
2023-01-19T02:46:58.457Z,95557.56
2023-01-19T02:49:00.425Z,95562.63
2023-01-19T02:51:10.867Z,95562.53
2023-01-19T02:53:18.258Z,95565.38
2023-01-19T02:55:28.295Z,95566.72
2023-01-19T02:57:32.542Z,95566.41
2023-01-19T02:59:48.495Z,95559.44
2023-01-19T03:01:55.774Z,95555.41
2023-01-19T03:04:14.464Z,95556.84
2023-01-19T03:06:33.725Z,95567.47
2023-01-19T03:09:02.535Z,95563.06
2023-01-19T03:11:12.708Z,95571.53
2023-01-19T03:13:21.450Z,95565.94
2023-01-19T03:15:37.431Z,95568.63
2023-01-19T03:17:40.651Z,95565.59
2023-01-19T03:19:45.799Z,95564.94
2023-01-19T03:21:52.005Z,95563.34
2023-01-19T03:23:58.469Z,95567.44
2023-01-19T03:26:01.839Z,95567.13
2023-01-19T03:28:04.717Z,95566.53
2023-01-19T03:30:15.653Z,95563.88
2023-01-19T03:32:22.201Z,95566.28
2023-01-19T03:34:24.098Z,95562.91
2023-01-19T03:36:31.953Z,95571.25
2023-01-19T03:38:37.091Z,95575.00
2023-01-19T03:40:39.706Z,95571.22
2023-01-19T03:42:42.574Z,95572.13
2023-01-19T03:44:46.249Z,95564.53
2023-01-19T03:46:48.741Z,95571.78
2023-01-19T03:48:50.873Z,95580.13
2023-01-19T03:50:53.136Z,95573.53
2023-01-19T03:53:11.377Z,95581.38
2023-01-19T03:55:13.681Z,95578.88
2023-01-19T03:57:15.336Z,95583.09
2023-01-19T03:59:17.567Z,95575.50
2023-01-19T04:01:23.116Z,95578.09
2023-01-19T04:03:24.906Z,95578.56
2023-01-19T04:05:26.554Z,95575.94
2023-01-19T04:07:28.375Z,95576.78
2023-01-19T04:09:29.918Z,95576.16
2023-01-19T04:11:31.608Z,95574.63
2023-01-19T04:13:33.157Z,95581.72
2023-01-19T04:15:34.742Z,95585.47
2023-01-19T04:17:36.669Z,95578.16
2023-01-19T04:19:38.503Z,95580.50
2023-01-19T04:21:40.034Z,95576.72
2023-01-19T04:23:41.583Z,95579.44
2023-01-19T04:25:43.157Z,95575.00
2023-01-19T04:27:44.757Z,95578.22
2023-01-19T04:29:46.321Z,95579.38
2023-01-19T04:31:47.917Z,95579.38
2023-01-19T04:33:49.543Z,95577.41
2023-01-19T04:35:54.406Z,95586.53
2023-01-19T04:37:56.082Z,95579.03
2023-01-19T04:39:57.797Z,95580.31
2023-01-19T04:41:59.409Z,95573.06
2023-01-19T04:44:01.000Z,95584.16
2023-01-19T04:46:02.800Z,95580.22
2023-01-19T04:48:05.675Z,95575.66
2023-01-19T04:50:08.406Z,95588.75
2023-01-19T04:52:09.944Z,95585.75
2023-01-19T04:54:11.513Z,95597.34
2023-01-19T04:56:13.099Z,95582.66
2023-01-19T04:58:15.638Z,95590.03
2023-01-19T05:00:17.776Z,95585.53
2023-01-19T05:02:19.472Z,95591.41
2023-01-19T05:04:22.361Z,95590.03
2023-01-19T05:06:23.964Z,95584.47
2023-01-19T05:08:25.846Z,95591.75
2023-01-19T05:10:27.999Z,95592.97
2023-01-19T05:12:29.523Z,95592.31
2023-01-19T05:14:31.159Z,95596.06
2023-01-19T05:16:34.676Z,95599.94
2023-01-19T05:18:37.003Z,95594.53
2023-01-19T05:20:39.598Z,95599.16
2023-01-19T05:22:41.360Z,95589.72
2023-01-19T05:24:42.943Z,95595.53
2023-01-19T05:26:44.551Z,95592.94
2023-01-19T05:28:46.091Z,95600.78
2023-01-19T05:30:49.437Z,95593.66
2023-01-19T05:32:51.041Z,95592.88
2023-01-19T05:34:52.531Z,95606.50
2023-01-19T05:36:54.073Z,95605.66
2023-01-19T05:38:56.050Z,95611.31
2023-01-19T05:40:58.797Z,95609.41
2023-01-19T05:43:02.711Z,95619.63
2023-01-19T05:45:05.554Z,95616.19
2023-01-19T05:47:07.359Z,95617.19
2023-01-19T05:49:11.292Z,95612.25
2023-01-19T05:51:12.927Z,95610.81
2023-01-19T05:53:16.072Z,95620.69
2023-01-19T05:55:18.141Z,95617.63
2023-01-19T05:57:19.717Z,95628.22
2023-01-19T05:59:24.088Z,95610.44
2023-01-19T06:01:26.462Z,95613.47
2023-01-19T06:03:28.113Z,95621.22
2023-01-19T06:05:29.793Z,95621.56
2023-01-19T06:07:31.801Z,95621.50
2023-01-19T06:09:33.764Z,95626.72
2023-01-19T06:11:35.352Z,95625.34
2023-01-19T06:13:41.283Z,95620.22
2023-01-19T06:15:44.889Z,95623.00
2023-01-19T06:17:46.509Z,95627.66
2023-01-19T06:19:48.049Z,95624.72
2023-01-19T06:21:52.441Z,95630.31
2023-01-19T06:23:54.084Z,95617.41
2023-01-19T06:25:57.044Z,95626.41
2023-01-19T06:27:58.555Z,95625.38
2023-01-19T06:30:00.583Z,95630.53
2023-01-19T06:32:02.192Z,95644.34
2023-01-19T06:34:04.084Z,95646.66
2023-01-19T06:36:05.698Z,95638.59
2023-01-19T06:38:07.201Z,95640.97
2023-01-19T06:40:09.438Z,95638.63
2023-01-19T06:42:11.522Z,95636.34
2023-01-19T06:44:13.213Z,95639.31
2023-01-19T06:46:15.392Z,95640.78
2023-01-19T06:48:18.485Z,95646.94
2023-01-19T06:50:20.048Z,95642.72
2023-01-19T06:52:21.622Z,95653.25
2023-01-19T06:54:23.486Z,95645.78
2023-01-19T06:56:25.465Z,95650.25
2023-01-19T06:58:28.396Z,95648.63
2023-01-19T07:00:29.996Z,95651.75
2023-01-19T07:02:31.968Z,95649.78
2023-01-19T07:04:33.872Z,95646.34
2023-01-19T07:06:35.849Z,95658.47
2023-01-19T07:08:38.508Z,95665.63
2023-01-19T07:11:25.978Z,95661.63
2023-01-19T07:13:02.057Z,95654.47
2023-01-19T07:15:05.055Z,95652.94
2023-01-19T07:17:06.876Z,95660.91
2023-01-19T07:19:10.638Z,95656.69
2023-01-19T07:21:12.139Z,95656.41
2023-01-19T07:23:13.663Z,95661.72
2023-01-19T07:25:15.412Z,95658.34
2023-01-19T07:27:17.766Z,95666.59
2023-01-19T07:29:20.366Z,95664.69
2023-01-19T07:31:22.037Z,95664.84
2023-01-19T07:33:25.694Z,95671.44
2023-01-19T07:35:29.509Z,95669.28
2023-01-19T07:37:31.017Z,95670.88
2023-01-19T07:39:32.678Z,95662.63
2023-01-19T07:41:34.279Z,95670.31
2023-01-19T07:43:39.065Z,95670.31
2023-01-19T07:45:40.707Z,95674.03
2023-01-19T07:47:48.568Z,95671.06
2023-01-19T07:49:50.221Z,95662.63
2023-01-19T07:51:51.754Z,95673.38
2023-01-19T07:53:53.314Z,95674.22
2023-01-19T07:55:56.382Z,95681.81
2023-01-19T07:57:57.990Z,95685.63
2023-01-19T08:00:00.002Z,95678.66
2023-01-19T08:02:01.906Z,95678.66
2023-01-19T08:04:03.604Z,95689.28
2023-01-19T08:06:06.916Z,95688.09
2023-01-19T08:08:08.536Z,95684.69
2023-01-19T08:10:11.010Z,95691.16
2023-01-19T08:12:12.592Z,95684.66
2023-01-19T08:14:14.275Z,95687.06
2023-01-19T08:16:16.087Z,95689.06
2023-01-19T08:18:18.547Z,95691.38
2023-01-19T08:20:20.114Z,95689.38
2023-01-19T08:22:22.476Z,95689.09
2023-01-19T08:24:28.994Z,95689.72
2023-01-19T08:26:33.343Z,95695.31
2023-01-19T08:28:34.906Z,95691.44
2023-01-19T08:30:36.611Z,95697.84
2023-01-19T08:32:38.118Z,95677.97
2023-01-19T08:34:39.711Z,95682.69
2023-01-19T08:36:41.552Z,95681.28
2023-01-19T08:38:45.163Z,95689.72
2023-01-19T08:40:46.728Z,95696.06
2023-01-19T08:42:48.343Z,95693.16
2023-01-19T08:44:58.109Z,95687.06
2023-01-19T08:47:00.424Z,95694.38
2023-01-19T08:49:02.219Z,95695.88
2023-01-19T08:51:03.926Z,95703.06
2023-01-19T08:53:06.878Z,95704.94
2023-01-19T08:55:09.326Z,95704.63
2023-01-19T08:57:10.891Z,95700.34
2023-01-19T08:59:13.211Z,95694.63
2023-01-19T09:01:16.846Z,95696.28
2023-01-19T09:03:19.504Z,95693.00
2023-01-19T09:05:21.001Z,95699.50
2023-01-19T09:07:22.937Z,95701.91
2023-01-19T09:09:24.483Z,95694.81
2023-01-19T09:11:27.823Z,95698.94
2023-01-19T09:13:29.528Z,95702.41
2023-01-19T09:15:33.935Z,95700.19
2023-01-19T09:17:35.564Z,95705.13
2023-01-19T09:19:37.125Z,95703.59
2023-01-19T09:21:38.801Z,95702.78
2023-01-19T09:23:40.475Z,95702.06
2023-01-19T09:25:44.056Z,95704.34
2023-01-19T09:27:45.976Z,95710.69
2023-01-19T09:29:52.483Z,95711.13
2023-01-19T09:31:54.126Z,95703.50
2023-01-19T09:33:55.682Z,95713.81
2023-01-19T09:35:57.312Z,95712.63
2023-01-19T09:37:59.476Z,95705.06
2023-01-19T09:40:02.066Z,95705.19
2023-01-19T09:42:28.739Z,95701.81
2023-01-19T09:44:32.599Z,95710.63
2023-01-19T09:46:41.653Z,95714.53
2023-01-19T09:48:48.177Z,95718.44
2023-01-19T09:50:50.167Z,95708.97
2023-01-19T09:53:24.256Z,95714.22
2023-01-19T09:55:27.241Z,95714.63
2023-01-19T09:57:30.169Z,95720.72
2023-01-19T09:59:33.713Z,95708.56
2023-01-19T10:01:35.697Z,95729.09
2023-01-19T10:03:41.264Z,95717.63
2023-01-19T10:05:50.476Z,95720.34
2023-01-19T10:08:21.341Z,95712.38
2023-01-19T10:10:26.870Z,95723.03
2023-01-19T10:12:51.715Z,95710.47
2023-01-19T10:15:11.433Z,95718.03
2023-01-19T10:17:38.497Z,95716.91
2023-01-19T10:19:47.513Z,95724.53
2023-01-19T10:21:51.401Z,95720.00
2023-01-19T10:24:05.884Z,95710.91
2023-01-19T10:26:28.018Z,95705.94
2023-01-19T10:28:30.066Z,95713.88
2023-01-19T10:30:31.740Z,95713.75
2023-01-19T10:32:35.965Z,95710.78
2023-01-19T10:34:37.769Z,95710.84
2023-01-19T10:36:40.905Z,95715.31
2023-01-19T10:38:42.549Z,95711.81
2023-01-19T10:40:52.786Z,95708.97
2023-01-19T10:42:56.759Z,95701.31
2023-01-19T10:44:58.563Z,95710.41
2023-01-19T10:47:01.919Z,95709.38
2023-01-19T10:49:04.178Z,95705.47
2023-01-19T10:51:06.536Z,95711.81
2023-01-19T10:53:22.069Z,95707.19
2023-01-19T10:55:29.306Z,95709.75
2023-01-19T10:57:43.231Z,95719.44
2023-01-19T10:59:45.148Z,95713.72
2023-01-19T11:02:15.776Z,95709.22
2023-01-19T11:04:28.844Z,95708.88
2023-01-19T11:06:31.614Z,95708.47
2023-01-19T11:08:33.835Z,95708.06
2023-01-19T11:10:35.765Z,95713.03
2023-01-19T11:12:42.725Z,95703.94
2023-01-19T11:14:45.360Z,95711.59
2023-01-19T11:16:57.772Z,95713.47
2023-01-19T11:19:01.957Z,95711.66
2023-01-19T11:21:06.502Z,95719.28
2023-01-19T11:23:30.877Z,95716.25
2023-01-19T11:25:35.712Z,95719.66
2023-01-19T11:27:37.978Z,95710.16
2023-01-19T11:29:48.144Z,95717.78
2023-01-19T11:31:50.621Z,95716.63
2023-01-19T11:33:55.440Z,95710.50
2023-01-19T11:36:03.803Z,95719.28
2023-01-19T11:38:07.780Z,95720.78
2023-01-19T11:40:10.261Z,95721.56
2023-01-19T11:42:13.279Z,95719.25
2023-01-19T11:44:39.124Z,95712.72
2023-01-19T11:46:44.025Z,95720.75
2023-01-19T11:49:02.144Z,95724.53
2023-01-19T11:51:06.103Z,95729.88
2023-01-19T11:53:15.095Z,95727.19
2023-01-19T11:55:25.172Z,95726.81
2023-01-19T11:57:27.308Z,95736.25
2023-01-19T11:59:29.043Z,95734.41
2023-01-19T12:01:34.340Z,95729.13
2023-01-19T12:03:44.369Z,95726.81
2023-01-19T12:05:51.427Z,95735.22
2023-01-19T12:07:54.015Z,95729.84
2023-01-19T12:10:07.494Z,95730.22
2023-01-19T12:12:25.557Z,95729.47
2023-01-19T12:14:36.270Z,95738.19
2023-01-19T12:16:38.945Z,95738.91
2023-01-19T12:18:59.276Z,95737.41
2023-01-19T12:21:02.934Z,95738.91
2023-01-19T12:23:27.565Z,95736.66
2023-01-19T12:25:52.748Z,95736.63
2023-01-19T12:27:57.464Z,95739.72
2023-01-19T12:29:59.840Z,95737.31
2023-01-19T12:32:13.575Z,95733.56
2023-01-19T12:34:31.200Z,95730.41
2023-01-19T12:36:37.392Z,95743.03
2023-01-19T12:38:44.854Z,95736.66
2023-01-19T12:40:46.832Z,95725.59
2023-01-19T12:42:56.959Z,95740.84
2023-01-19T12:45:16.880Z,95732.47
2023-01-19T12:47:24.427Z,95733.22
2023-01-19T12:49:38.715Z,95721.81
2023-01-19T12:51:41.036Z,95723.75
2023-01-19T12:53:51.803Z,95728.28
2023-01-19T12:56:05.970Z,95734.75
2023-01-19T12:58:17.703Z,95724.88
2023-01-19T13:00:22.014Z,95722.63
2023-01-19T13:02:23.710Z,95719.22
2023-01-19T13:04:33.147Z,95717.59
2023-01-19T13:06:47.216Z,95729.78
2023-01-19T13:08:59.955Z,95720.63
2023-01-19T13:11:10.327Z,95726.75
2023-01-19T13:13:18.615Z,95719.13
2023-01-19T13:15:33.421Z,95726.75
2023-01-19T13:17:50.972Z,95729.00
2023-01-19T13:20:00.283Z,95726.31
2023-01-19T13:22:44.711Z,95726.63
2023-01-19T13:25:06.763Z,95721.03
2023-01-19T13:27:12.969Z,95730.53
2023-01-19T13:29:19.600Z,95718.81
2023-01-19T13:31:22.752Z,95728.34
2023-01-19T13:33:25.812Z,95732.06
2023-01-19T13:35:28.531Z,95735.81
2023-01-19T13:37:39.362Z,95735.44
2023-01-19T13:39:46.135Z,95731.94
2023-01-19T13:41:50.411Z,95737.41
2023-01-19T13:44:02.069Z,95741.22
2023-01-19T13:46:04.414Z,95740.47
2023-01-19T13:48:12.731Z,95741.09
2023-01-19T13:50:24.032Z,95738.13
2023-01-19T13:52:29.518Z,95745.38
2023-01-19T13:54:31.357Z,95743.78
2023-01-19T13:56:33.592Z,95753.28
2023-01-19T13:58:35.425Z,95747.56
2023-01-19T14:00:38.417Z,95752.16
2023-01-19T14:02:59.123Z,95756.34
2023-01-19T14:05:24.210Z,95757.72
2023-01-19T14:07:28.491Z,95763.06
2023-01-19T14:09:30.752Z,95756.56
2023-01-19T14:11:32.277Z,95764.50
2023-01-19T14:13:41.517Z,95764.47
2023-01-19T14:15:45.040Z,95766.78
2023-01-19T14:18:10.923Z,95767.06
2023-01-19T14:20:29.922Z,95766.69
2023-01-19T14:22:43.705Z,95772.06
2023-01-19T14:24:45.367Z,95767.84
2023-01-19T14:26:52.620Z,95770.91
2023-01-19T14:28:54.498Z,95770.50
2023-01-19T14:30:59.391Z,95774.00
2023-01-19T14:33:01.149Z,95777.84
2023-01-19T14:35:05.657Z,95771.72
2023-01-19T14:37:21.650Z,95771.00
2023-01-19T14:39:26.087Z,95775.81
2023-01-19T14:41:35.822Z,95767.53
2023-01-19T14:43:43.839Z,95774.72
2023-01-19T14:45:47.195Z,95762.16
2023-01-19T14:47:57.587Z,95769.13
2023-01-19T14:50:07.497Z,95758.38
2023-01-19T14:52:34.329Z,95768.34
2023-01-19T14:54:40.282Z,95760.81
2023-01-19T14:56:41.885Z,95767.66
2023-01-19T14:58:43.519Z,95764.53
2023-01-19T15:00:46.866Z,95766.47
2023-01-19T15:02:48.822Z,95782.41
2023-01-19T15:04:54.992Z,95777.41
2023-01-19T15:06:56.616Z,95776.69
2023-01-19T15:08:58.785Z,95778.13
2023-01-19T15:11:10.849Z,95778.94
2023-01-19T15:13:20.315Z,95778.16
2023-01-19T15:15:33.488Z,95787.31
2023-01-19T15:17:35.607Z,95789.59
2023-01-19T15:19:37.277Z,95791.84
2023-01-19T15:21:42.423Z,95790.34
2023-01-19T15:23:44.045Z,95785.84
2023-01-19T15:25:45.830Z,95781.28
2023-01-19T15:27:48.557Z,95798.31
2023-01-19T15:29:50.190Z,95786.56
2023-01-19T15:31:52.761Z,95778.88
2023-01-19T15:33:54.338Z,95797.06
2023-01-19T15:35:56.366Z,95786.50
2023-01-19T15:37:57.877Z,95797.19
2023-01-19T15:39:59.492Z,95799.16
2023-01-19T15:42:02.492Z,95798.22
2023-01-19T15:44:06.252Z,95807.72
2023-01-19T15:46:11.119Z,95809.94
2023-01-19T15:48:12.698Z,95797.06
2023-01-19T15:50:15.577Z,95800.16
2023-01-19T15:52:17.341Z,95809.28
2023-01-19T15:54:19.068Z,95811.59
2023-01-19T15:56:29.161Z,95809.19
2023-01-19T15:58:31.001Z,95813.38
2023-01-19T16:00:34.167Z,95810.00
2023-01-19T16:02:37.013Z,95817.91
2023-01-19T16:04:38.579Z,95816.81
2023-01-19T16:06:40.271Z,95816.78
2023-01-19T16:08:42.651Z,95812.66
2023-01-19T16:10:44.416Z,95824.69
2023-01-19T16:12:47.785Z,95821.59
2023-01-19T16:14:49.321Z,95815.44
2023-01-19T16:16:50.906Z,95829.16
2023-01-19T16:18:52.559Z,95821.31
2023-01-19T16:20:54.280Z,95820.94
2023-01-19T16:23:00.668Z,95823.53
2023-01-19T16:25:08.123Z,95827.66
2023-01-19T16:27:25.561Z,95832.59
2023-01-19T16:29:27.095Z,95829.28
2023-01-19T16:31:29.389Z,95835.72
2023-01-19T16:33:31.254Z,95830.06
2023-01-19T16:35:33.033Z,95839.19
2023-01-19T16:37:34.561Z,95839.59
2023-01-19T16:39:36.369Z,95848.03
2023-01-19T16:41:38.364Z,95841.22
2023-01-19T16:43:39.927Z,95846.59
2023-01-19T16:46:04.351Z,95843.19
2023-01-19T16:48:06.135Z,95841.28
2023-01-19T16:50:11.613Z,95844.31
2023-01-19T16:52:13.423Z,95840.84
2023-01-19T16:54:20.187Z,95850.00
2023-01-19T16:56:21.850Z,95848.81
2023-01-19T16:58:23.737Z,95842.41
2023-01-19T17:00:25.243Z,95841.97
2023-01-19T17:02:26.804Z,95846.47
2023-01-19T17:04:28.703Z,95850.69
2023-01-19T17:06:31.131Z,95845.75
2023-01-19T17:08:33.704Z,95848.88
2023-01-19T17:10:39.962Z,95850.34
2023-01-19T17:12:41.529Z,95848.06
2023-01-19T17:14:43.706Z,95848.00
2023-01-19T17:16:45.337Z,95848.81
2023-01-19T17:18:48.013Z,95854.47
2023-01-19T17:20:49.791Z,95848.41
2023-01-19T17:22:51.900Z,95854.09
2023-01-19T17:24:53.411Z,95859.84
2023-01-19T17:26:54.933Z,95862.50
2023-01-19T17:29:01.325Z,95856.06
2023-01-19T17:31:13.785Z,95864.78
2023-01-19T17:33:15.350Z,95856.41
2023-01-19T17:35:16.973Z,95861.38
2023-01-19T17:37:18.917Z,95867.44
2023-01-19T17:39:20.563Z,95866.34
2023-01-19T17:41:27.888Z,95871.69
2023-01-19T17:43:29.502Z,95871.59
2023-01-19T17:45:33.870Z,95867.84
2023-01-19T17:47:35.632Z,95870.88
2023-01-19T17:49:37.367Z,95865.09
2023-01-19T17:51:39.347Z,95873.13
2023-01-19T17:53:42.028Z,95872.41
2023-01-19T17:55:43.759Z,95869.00
2023-01-19T17:57:45.689Z,95879.28
2023-01-19T17:59:47.714Z,95875.09
2023-01-19T18:01:49.514Z,95883.81
2023-01-19T18:03:51.186Z,95880.44
2023-01-19T18:05:53.958Z,95880.41
2023-01-19T18:07:55.496Z,95878.38
2023-01-19T18:09:58.984Z,95877.72
2023-01-19T18:12:01.994Z,95874.28
2023-01-19T18:14:05.255Z,95882.28
2023-01-19T18:16:10.657Z,95883.63
2023-01-19T18:18:13.260Z,95886.66
2023-01-19T18:20:15.140Z,95881.41
2023-01-19T18:22:17.601Z,95883.03
2023-01-19T18:24:19.123Z,95897.41
2023-01-19T18:26:22.249Z,95891.34
2023-01-19T18:28:23.810Z,95889.19
2023-01-19T18:30:25.437Z,95882.38
2023-01-19T18:32:27.307Z,95881.16
2023-01-19T18:34:28.890Z,95891.41
2023-01-19T18:36:34.318Z,95887.63
2023-01-19T18:38:36.213Z,95889.59
2023-01-19T18:40:39.968Z,95890.19
2023-01-19T18:42:41.551Z,95890.13
2023-01-19T18:44:43.659Z,95888.56
2023-01-19T18:46:45.218Z,95887.31
2023-01-19T18:48:46.832Z,95888.84
2023-01-19T18:50:48.386Z,95897.09
2023-01-19T18:52:51.231Z,95892.19
2023-01-19T18:54:52.796Z,95892.59
2023-01-19T18:56:54.585Z,95893.03
2023-01-19T18:58:56.485Z,95896.78
2023-01-19T19:00:59.831Z,95895.25
2023-01-19T19:03:01.459Z,95900.66
2023-01-19T19:05:03.512Z,95890.75
2023-01-19T19:07:05.614Z,95898.00
2023-01-19T19:09:07.208Z,95896.03
2023-01-19T19:11:09.057Z,95901.69
2023-01-19T19:13:12.909Z,95892.94
2023-01-19T19:15:14.483Z,95891.50
2023-01-19T19:17:16.058Z,95896.44
2023-01-19T19:19:18.346Z,95897.16
2023-01-19T19:21:21.755Z,95891.84
2023-01-19T19:23:23.596Z,95889.84
2023-01-19T19:25:25.476Z,95895.13
2023-01-19T19:27:27.800Z,95896.31
2023-01-19T19:29:29.803Z,95900.97
2023-01-19T19:31:31.836Z,95892.19
2023-01-19T19:33:37.027Z,95899.75
2023-01-19T19:35:39.195Z,95908.53
2023-01-19T19:37:40.712Z,95905.88
2023-01-19T19:39:42.461Z,95908.88
2023-01-19T19:41:44.008Z,95908.53
2023-01-19T19:43:45.614Z,95911.50
2023-01-19T19:46:19.021Z,95901.28
2023-01-19T19:48:20.549Z,95900.19
2023-01-19T19:50:22.057Z,95906.22
2023-01-19T19:52:23.893Z,95907.06
2023-01-19T19:54:26.014Z,95903.94
2023-01-19T19:56:29.986Z,95911.25
2023-01-19T19:58:31.909Z,95918.81
2023-01-19T20:00:33.535Z,95912.75
2023-01-19T20:02:35.186Z,95923.69
2023-01-19T20:04:37.219Z,95915.34
2023-01-19T20:06:41.251Z,95929.44
2023-01-19T20:08:43.610Z,95923.38
2023-01-19T20:10:45.150Z,95921.13
2023-01-19T20:12:46.691Z,95924.94
2023-01-19T20:14:48.575Z,95933.34
2023-01-19T20:16:50.317Z,95933.25
2023-01-19T20:18:56.391Z,95930.94
2023-01-19T20:20:59.721Z,95929.44
2023-01-19T20:23:01.730Z,95934.00
2023-01-19T20:25:03.450Z,95931.78
2023-01-19T20:27:04.981Z,95928.41
2023-01-19T20:29:06.904Z,95931.50
2023-01-19T20:31:29.016Z,95934.03
2023-01-19T20:33:30.700Z,95930.28
2023-01-19T20:35:32.265Z,95937.41
2023-01-19T20:37:34.072Z,95934.34
2023-01-19T20:39:37.083Z,95933.88
2023-01-19T20:41:43.613Z,95938.56
2023-01-19T20:43:45.851Z,95946.88
2023-01-19T20:45:47.921Z,95945.34
2023-01-19T20:47:49.498Z,95940.91
2023-01-19T20:49:51.103Z,95939.00
2023-01-19T20:51:53.273Z,95947.72
2023-01-19T20:53:54.803Z,95942.78
2023-01-19T20:55:56.449Z,95949.63
2023-01-19T20:57:58.013Z,95943.63
2023-01-19T20:59:59.625Z,95950.88
2023-01-19T21:02:01.464Z,95949.38
2023-01-19T21:04:03.606Z,95953.19
2023-01-19T21:06:05.810Z,95949.97
2023-01-19T21:08:08.783Z,95948.47
2023-01-19T21:10:10.476Z,95946.50
2023-01-19T21:12:13.214Z,95956.41
2023-01-19T21:14:14.860Z,95960.63
2023-01-19T21:16:16.978Z,95960.69
2023-01-19T21:18:18.614Z,95965.66
2023-01-19T21:20:20.461Z,95963.75
2023-01-19T21:22:22.080Z,95962.56
2023-01-19T21:24:23.700Z,95966.00
2023-01-19T21:26:25.769Z,95967.19
2023-01-19T21:28:28.725Z,95962.63
2023-01-19T21:30:30.441Z,95967.94
2023-01-19T21:32:32.148Z,95969.88
2023-01-19T21:34:34.440Z,95974.81
2023-01-19T21:36:36.047Z,95975.06
2023-01-19T21:38:38.432Z,95981.81
2023-01-19T21:40:39.979Z,95977.00
2023-01-19T21:42:41.728Z,95975.84
2023-01-19T21:44:43.812Z,95981.91
2023-01-19T21:46:45.516Z,95984.41
2023-01-19T21:48:48.004Z,95987.81
2023-01-19T21:50:58.439Z,95985.50
2023-01-19T21:53:00.381Z,95986.00
2023-01-19T21:55:02.383Z,95985.44
2023-01-19T21:57:04.098Z,95986.28
2023-01-19T21:59:05.966Z,95987.72
2023-01-19T22:01:11.073Z,95988.06
2023-01-19T22:03:12.769Z,95992.16
2023-01-19T22:05:14.927Z,95998.63
2023-01-19T22:07:17.128Z,95990.72
2023-01-19T22:09:18.784Z,96005.78
2023-01-19T22:11:21.178Z,96008.50
2023-01-19T22:13:22.756Z,95997.63
2023-01-19T22:15:24.319Z,95998.06
2023-01-19T22:17:26.145Z,96002.53
2023-01-19T22:19:27.899Z,96002.22
2023-01-19T22:21:32.930Z,96012.16
2023-01-19T22:23:34.781Z,96007.63
2023-01-19T22:25:36.387Z,96009.13
2023-01-19T22:27:39.256Z,96004.03
2023-01-19T22:29:40.756Z,96009.38
2023-01-19T22:31:43.101Z,96005.59
2023-01-19T22:33:45.369Z,96005.97
2023-01-19T22:35:46.931Z,96015.63
2023-01-19T22:37:48.751Z,96008.31
2023-01-19T22:39:50.712Z,96011.81
2023-01-19T22:41:52.523Z,96008.03
2023-01-19T22:43:56.891Z,96005.63
2023-01-19T22:45:59.211Z,96015.06
2023-01-19T22:48:00.881Z,96009.44
2023-01-19T22:50:02.508Z,96009.91
2023-01-19T22:52:04.241Z,96011.84
2023-01-19T22:54:06.657Z,96006.13
2023-01-19T22:56:11.671Z,96009.06
2023-01-19T22:58:13.408Z,96017.03
2023-01-19T23:00:15.302Z,96014.28
2023-01-19T23:02:18.583Z,96013.50
2023-01-19T23:04:21.531Z,96024.16
2023-01-19T23:06:26.006Z,96018.91
2023-01-19T23:08:27.539Z,96022.91
2023-01-19T23:10:29.177Z,96020.56
2023-01-19T23:12:30.728Z,96023.13
2023-01-19T23:14:32.476Z,96022.72
2023-01-19T23:16:34.855Z,96018.25
2023-01-19T23:18:36.652Z,96024.34
2023-01-19T23:20:38.180Z,96033.00
2023-01-19T23:22:39.810Z,96030.09
2023-01-19T23:24:41.343Z,96036.63
2023-01-19T23:26:43.023Z,96033.25
2023-01-19T23:28:46.185Z,96032.47
2023-01-19T23:30:47.653Z,96035.63
2023-01-19T23:32:49.761Z,96032.63
2023-01-19T23:34:51.537Z,96037.88
2023-01-19T23:36:53.080Z,96033.25
2023-01-19T23:38:57.274Z,96045.66
2023-01-19T23:40:59.180Z,96043.00
2023-01-19T23:43:00.919Z,96043.47
2023-01-19T23:45:02.640Z,96043.44
2023-01-19T23:47:04.196Z,96044.75
2023-01-19T23:49:05.753Z,96054.25
2023-01-19T23:51:08.993Z,96050.56
2023-01-19T23:53:10.486Z,96054.34
2023-01-19T23:55:12.272Z,96055.94
2023-01-19T23:57:13.993Z,96047.91
2023-01-19T23:59:16.541Z,96055.66
